aviador You're here:

KACV Decoded Metar

ARCATA/EUREKA in CA, USA
Report Time2017-08-18 00:53:00
UTC Time2017-08-18 01:09:30
Flight Rules vfr VFR
Wind260° at 05 kt
W.Decomp.*RWY 19: 3.0 kt HW 4.0 kt RCW
RWY 32: 1.1 kt HW 4.9 kt LCW
W.Rank260° ranks 26
Current wind is below 260° avg. (5.3)
Visibility9999 m
Phenomena:N/A
Clouds:N/A
Expected CloudBase > 800 ft AGL from Temp-Dew spread
CeilingNone
Temp15°C (ISA 0)
Dew Point13°C (88% RH)
AAT14.1°C
QNH1017 hPa
Density Alt338 ft
Elevation220 ft
Report Wrong Elevation
Raw Report
METAR KACV 180053Z AUTO 26005KT 7SM CLR 15/13 A3002 RMK AO2 SLP170
T01500133=

Extra information for KACV:More info

Metar Taf Metar & Taf Last 4 Metars F.Rules Stats Wind Profile Meteogram Temp Stats Airport Information Weather charts Add Link Nearby VenuesMetar ALERT Operation Metar Decoded Social comments

AIRNAV info for KACV